sensor_id;sensor_type;location;lat;lon;timestamp;temperature;humidity
29777;DHT22;16677;52.224;7.484;2022-09-01T00:00:00;13.70;99.90
29777;DHT22;16677;52.224;7.484;2022-09-01T00:02:29;13.70;99.90
29777;DHT22;16677;52.224;7.484;2022-09-01T00:04:57;13.70;99.90
29777;DHT22;16677;52.224;7.484;2022-09-01T00:07:26;13.60;99.90
29777;DHT22;16677;52.224;7.484;2022-09-01T00:09:57;13.60;99.90
29777;DHT22;16677;52.224;7.484;2022-09-01T00:12:24;13.60;99.90
29777;DHT22;16677;52.224;7.484;2022-09-01T00:14:52;13.60;99.90
29777;DHT22;16677;52.224;7.484;2022-09-01T00:17:19;13.50;99.90
29777;DHT22;16677;52.224;7.484;2022-09-01T00:19:46;13.50;99.90
29777;DHT22;16677;52.224;7.484;2022-09-01T00:22:14;13.50;99.90
29777;DHT22;16677;52.224;7.484;2022-09-01T00:24:42;13.50;99.90
29777;DHT22;16677;52.224;7.484;2022-09-01T00:27:10;13.50;99.90
29777;DHT22;16677;52.224;7.484;2022-09-01T00:29:38;13.50;99.90
29777;DHT22;16677;52.224;7.484;2022-09-01T00:32:10;13.50;99.90
29777;DHT22;16677;52.224;7.484;2022-09-01T00:34:37;13.40;99.90
29777;DHT22;16677;52.224;7.484;2022-09-01T00:37:04;13.30;99.90
29777;DHT22;16677;52.224;7.484;2022-09-01T00:39:31;13.40;99.90
29777;DHT22;16677;52.224;7.484;2022-09-01T00:41:58;13.40;99.90
29777;DHT22;16677;52.224;7.484;2022-09-01T00:44:26;13.40;99.90
29777;DHT22;16677;52.224;7.484;2022-09-01T00:46:57;13.40;99.90
29777;DHT22;16677;52.224;7.484;2022-09-01T00:49:38;13.40;99.90
29777;DHT22;16677;52.224;7.484;2022-09-01T00:52:30;13.30;99.90
29777;DHT22;16677;52.224;7.484;2022-09-01T00:55:06;13.30;99.90
29777;DHT22;16677;52.224;7.484;2022-09-01T00:57:34;13.30;99.90
29777;DHT22;16677;52.224;7.484;2022-09-01T01:00:09;13.30;99.90
29777;DHT22;16677;52.224;7.484;2022-09-01T01:02:39;13.30;99.90
29777;DHT22;16677;52.224;7.484;2022-09-01T01:05:07;13.20;99.90
29777;DHT22;16677;52.224;7.484;2022-09-01T01:07:38;13.20;99.90
29777;DHT22;16677;52.224;7.484;2022-09-01T01:10:13;13.20;99.90
29777;DHT22;16677;52.224;7.484;2022-09-01T01:12:42;13.20;99.90
29777;DHT22;16677;52.224;7.484;2022-09-01T01:15:13;13.10;99.90
29777;DHT22;16677;52.224;7.484;2022-09-01T01:17:41;13.10;99.90
29777;DHT22;16677;52.224;7.484;2022-09-01T01:20:10;13.00;99.90
29777;DHT22;16677;52.224;7.484;2022-09-01T01:25:52;12.90;99.90
29777;DHT22;16677;52.224;7.484;2022-09-01T01:28:26;12.90;99.90
29777;DHT22;16677;52.224;7.484;2022-09-01T01:31:00;12.90;99.90
29777;DHT22;16677;52.224;7.484;2022-09-01T01:36:11;12.90;99.90
29777;DHT22;16677;52.224;7.484;2022-09-01T01:38:41;12.90;99.90
29777;DHT22;16677;52.224;7.484;2022-09-01T01:41:10;12.90;99.90
29777;DHT22;16677;52.224;7.484;2022-09-01T01:43:38;12.80;99.90
29777;DHT22;16677;52.224;7.484;2022-09-01T01:46:07;12.80;99.90
29777;DHT22;16677;52.224;7.484;2022-09-01T01:48:38;12.70;99.90
29777;DHT22;16677;52.224;7.484;2022-09-01T01:51:05;12.80;99.90
29777;DHT22;16677;52.224;7.484;2022-09-01T01:53:33;12.80;99.90
29777;DHT22;16677;52.224;7.484;2022-09-01T01:56:00;12.70;99.90
29777;DHT22;16677;52.224;7.484;2022-09-01T01:58:28;12.70;99.90
29777;DHT22;16677;52.224;7.484;2022-09-01T02:00:56;12.80;99.90
29777;DHT22;16677;52.224;7.484;2022-09-01T02:03:26;12.70;99.90
29777;DHT22;16677;52.224;7.484;2022-09-01T02:06:02;12.70;99.90
29777;DHT22;16677;52.224;7.484;2022-09-01T02:08:33;12.70;99.90
29777;DHT22;16677;52.224;7.484;2022-09-01T02:11:03;12.70;99.90
29777;DHT22;16677;52.224;7.484;2022-09-01T02:13:31;12.70;99.90
29777;DHT22;16677;52.224;7.484;2022-09-01T02:16:03;12.70;99.90
29777;DHT22;16677;52.224;7.484;2022-09-01T02:18:35;12.70;99.90
29777;DHT22;16677;52.224;7.484;2022-09-01T02:21:08;12.70;99.90
29777;DHT22;16677;52.224;7.484;2022-09-01T02:23:42;12.60;99.90
29777;DHT22;16677;52.224;7.484;2022-09-01T02:26:09;12.60;99.90
29777;DHT22;16677;52.224;7.484;2022-09-01T02:28:46;12.60;99.90
29777;DHT22;16677;52.224;7.484;2022-09-01T02:31:21;12.60;99.90
29777;DHT22;16677;52.224;7.484;2022-09-01T02:33:50;12.50;99.90
29777;DHT22;16677;52.224;7.484;2022-09-01T02:36:19;12.50;99.90
29777;DHT22;16677;52.224;7.484;2022-09-01T02:38:47;12.50;99.90
29777;DHT22;16677;52.224;7.484;2022-09-01T02:41:21;12.50;99.90
29777;DHT22;16677;52.224;7.484;2022-09-01T02:43:51;12.50;99.90
29777;DHT22;16677;52.224;7.484;2022-09-01T02:46:18;12.50;99.90
29777;DHT22;16677;52.224;7.484;2022-09-01T02:48:50;12.50;99.90
29777;DHT22;16677;52.224;7.484;2022-09-01T02:51:21;12.50;99.90
29777;DHT22;16677;52.224;7.484;2022-09-01T02:53:52;12.50;99.90
29777;DHT22;16677;52.224;7.484;2022-09-01T02:56:21;12.40;99.90
29777;DHT22;16677;52.224;7.484;2022-09-01T02:58:53;12.40;99.90
29777;DHT22;16677;52.224;7.484;2022-09-01T03:01:26;12.40;99.90
29777;DHT22;16677;52.224;7.484;2022-09-01T03:04:02;12.30;1.00
29777;DHT22;16677;52.224;7.484;2022-09-01T03:06:31;12.30;1.00
29777;DHT22;16677;52.224;7.484;2022-09-01T03:09:00;12.20;1.00
29777;DHT22;16677;52.224;7.484;2022-09-01T03:11:30;12.20;1.00
29777;DHT22;16677;52.224;7.484;2022-09-01T03:13:58;12.20;1.00
29777;DHT22;16677;52.224;7.484;2022-09-01T03:16:25;12.20;1.00
29777;DHT22;16677;52.224;7.484;2022-09-01T03:18:52;12.20;1.00
29777;DHT22;16677;52.224;7.484;2022-09-01T03:21:20;12.20;1.00
29777;DHT22;16677;52.224;7.484;2022-09-01T03:23:49;12.20;1.00
29777;DHT22;16677;52.224;7.484;2022-09-01T03:26:17;12.20;1.00
29777;DHT22;16677;52.224;7.484;2022-09-01T03:28:48;12.10;1.00
29777;DHT22;16677;52.224;7.484;2022-09-01T03:31:15;12.10;1.00
29777;DHT22;16677;52.224;7.484;2022-09-01T03:33:44;12.10;1.00
29777;DHT22;16677;52.224;7.484;2022-09-01T03:36:12;12.00;1.00
29777;DHT22;16677;52.224;7.484;2022-09-01T03:38:47;12.00;1.00
29777;DHT22;16677;52.224;7.484;2022-09-01T03:41:16;12.00;1.00
29777;DHT22;16677;52.224;7.484;2022-09-01T03:43:45;12.00;1.00
29777;DHT22;16677;52.224;7.484;2022-09-01T03:46:15;11.90;1.00
29777;DHT22;16677;52.224;7.484;2022-09-01T03:48:54;11.90;1.00
29777;DHT22;16677;52.224;7.484;2022-09-01T03:51:23;11.90;1.00
29777;DHT22;16677;52.224;7.484;2022-09-01T03:53:52;11.90;1.00
29777;DHT22;16677;52.224;7.484;2022-09-01T03:56:26;11.90;1.00
29777;DHT22;16677;52.224;7.484;2022-09-01T03:58:58;11.90;1.00
29777;DHT22;16677;52.224;7.484;2022-09-01T04:01:28;11.90;1.00
29777;DHT22;16677;52.224;7.484;2022-09-01T04:04:00;11.80;1.00
29777;DHT22;16677;52.224;7.484;2022-09-01T04:06:27;11.80;1.00
29777;DHT22;16677;52.224;7.484;2022-09-01T04:08:56;11.80;1.00
29777;DHT22;16677;52.224;7.484;2022-09-01T04:11:29;11.70;1.00
29777;DHT22;16677;52.224;7.484;2022-09-01T04:13:57;11.70;1.00
29777;DHT22;16677;52.224;7.484;2022-09-01T04:16:27;11.70;1.00
29777;DHT22;16677;52.224;7.484;2022-09-01T04:19:15;11.70;1.00
29777;DHT22;16677;52.224;7.484;2022-09-01T04:21:54;11.70;1.00
29777;DHT22;16677;52.224;7.484;2022-09-01T04:24:25;11.70;1.00
29777;DHT22;16677;52.224;7.484;2022-09-01T04:26:59;11.70;1.00
29777;DHT22;16677;52.224;7.484;2022-09-01T04:29:28;11.70;1.00
29777;DHT22;16677;52.224;7.484;2022-09-01T04:32:08;11.60;1.00
29777;DHT22;16677;52.224;7.484;2022-09-01T04:34:39;11.60;1.00
29777;DHT22;16677;52.224;7.484;2022-09-01T04:37:11;11.50;1.00
29777;DHT22;16677;52.224;7.484;2022-09-01T04:39:41;11.50;1.00
29777;DHT22;16677;52.224;7.484;2022-09-01T04:42:21;11.50;1.00
29777;DHT22;16677;52.224;7.484;2022-09-01T04:44:51;11.50;1.00
29777;DHT22;16677;52.224;7.484;2022-09-01T04:47:19;11.50;1.00
29777;DHT22;16677;52.224;7.484;2022-09-01T04:50:01;11.50;1.00
29777;DHT22;16677;52.224;7.484;2022-09-01T04:52:30;11.50;1.00
29777;DHT22;16677;52.224;7.484;2022-09-01T04:54:58;11.50;1.00
29777;DHT22;16677;52.224;7.484;2022-09-01T04:57:25;11.50;1.00
29777;DHT22;16677;52.224;7.484;2022-09-01T04:59:54;11.50;1.00
29777;DHT22;16677;52.224;7.484;2022-09-01T05:02:22;11.50;1.00
29777;DHT22;16677;52.224;7.484;2022-09-01T05:04:53;11.50;1.00
29777;DHT22;16677;52.224;7.484;2022-09-01T05:07:20;11.40;1.00
29777;DHT22;16677;52.224;7.484;2022-09-01T05:09:52;11.40;1.00
29777;DHT22;16677;52.224;7.484;2022-09-01T05:12:26;11.50;1.00
29777;DHT22;16677;52.224;7.484;2022-09-01T05:14:54;11.50;1.00
29777;DHT22;16677;52.224;7.484;2022-09-01T05:17:21;11.30;1.00
29777;DHT22;16677;52.224;7.484;2022-09-01T05:19:51;11.60;1.00
29777;DHT22;16677;52.224;7.484;2022-09-01T05:22:20;11.60;1.00
29777;DHT22;16677;52.224;7.484;2022-09-01T05:24:49;11.70;1.00
29777;DHT22;16677;52.224;7.484;2022-09-01T05:27:21;11.80;1.00
29777;DHT22;16677;52.224;7.484;2022-09-01T05:29:48;11.80;1.00
29777;DHT22;16677;52.224;7.484;2022-09-01T05:32:16;11.90;1.00
29777;DHT22;16677;52.224;7.484;2022-09-01T05:34:43;12.00;1.00
29777;DHT22;16677;52.224;7.484;2022-09-01T05:37:11;12.10;1.00
29777;DHT22;16677;52.224;7.484;2022-09-01T05:39:40;12.20;1.00
29777;DHT22;16677;52.224;7.484;2022-09-01T05:42:07;12.30;1.00
29777;DHT22;16677;52.224;7.484;2022-09-01T05:44:35;12.60;1.00
29777;DHT22;16677;52.224;7.484;2022-09-01T05:47:05;13.00;1.00
29777;DHT22;16677;52.224;7.484;2022-09-01T05:49:47;13.50;99.90
29777;DHT22;16677;52.224;7.484;2022-09-01T05:52:15;13.80;99.90
29777;DHT22;16677;52.224;7.484;2022-09-01T05:54:42;14.10;99.90
29777;DHT22;16677;52.224;7.484;2022-09-01T05:57:15;14.30;99.90
29777;DHT22;16677;52.224;7.484;2022-09-01T06:00:00;14.60;99.90
29777;DHT22;16677;52.224;7.484;2022-09-01T06:02:28;14.90;99.90
29777;DHT22;16677;52.224;7.484;2022-09-01T06:04:56;15.10;99.90
29777;DHT22;16677;52.224;7.484;2022-09-01T06:07:25;15.20;99.90
29777;DHT22;16677;52.224;7.484;2022-09-01T06:09:55;15.00;99.90
29777;DHT22;16677;52.224;7.484;2022-09-01T06:12:22;15.20;99.90
29777;DHT22;16677;52.224;7.484;2022-09-01T06:14:52;15.40;99.90
29777;DHT22;16677;52.224;7.484;2022-09-01T06:17:22;15.70;99.90
29777;DHT22;16677;52.224;7.484;2022-09-01T06:19:52;16.00;99.90
29777;DHT22;16677;52.224;7.484;2022-09-01T06:22:23;16.10;99.90
29777;DHT22;16677;52.224;7.484;2022-09-01T06:24:51;16.40;99.90
29777;DHT22;16677;52.224;7.484;2022-09-01T06:27:27;16.50;99.90
29777;DHT22;16677;52.224;7.484;2022-09-01T06:29:55;16.70;99.90
29777;DHT22;16677;52.224;7.484;2022-09-01T06:32:24;16.80;99.90
29777;DHT22;16677;52.224;7.484;2022-09-01T06:34:52;16.80;99.90
29777;DHT22;16677;52.224;7.484;2022-09-01T06:37:19;17.00;99.90
29777;DHT22;16677;52.224;7.484;2022-09-01T06:39:49;17.20;99.90
29777;DHT22;16677;52.224;7.484;2022-09-01T06:42:16;17.30;99.90
29777;DHT22;16677;52.224;7.484;2022-09-01T06:44:45;17.40;99.90
29777;DHT22;16677;52.224;7.484;2022-09-01T06:47:12;17.10;99.90
29777;DHT22;16677;52.224;7.484;2022-09-01T06:49:41;17.20;99.90
29777;DHT22;16677;52.224;7.484;2022-09-01T06:52:08;17.20;99.90
29777;DHT22;16677;52.224;7.484;2022-09-01T06:54:53;17.20;99.90
29777;DHT22;16677;52.224;7.484;2022-09-01T06:57:34;17.40;99.90
29777;DHT22;16677;52.224;7.484;2022-09-01T07:00:29;17.50;99.90
29777;DHT22;16677;52.224;7.484;2022-09-01T07:02:57;17.60;99.90
29777;DHT22;16677;52.224;7.484;2022-09-01T07:05:24;17.60;99.90
29777;DHT22;16677;52.224;7.484;2022-09-01T07:08:14;17.80;99.90
29777;DHT22;16677;52.224;7.484;2022-09-01T07:10:47;18.30;99.90
29777;DHT22;16677;52.224;7.484;2022-09-01T07:13:35;18.70;99.90
29777;DHT22;16677;52.224;7.484;2022-09-01T07:16:04;18.60;99.90
29777;DHT22;16677;52.224;7.484;2022-09-01T07:18:55;18.80;99.90
29777;DHT22;16677;52.224;7.484;2022-09-01T07:21:25;19.00;99.90
29777;DHT22;16677;52.224;7.484;2022-09-01T07:24:13;19.20;99.90
29777;DHT22;16677;52.224;7.484;2022-09-01T07:26:43;19.30;99.90
29777;DHT22;16677;52.224;7.484;2022-09-01T07:29:15;19.30;99.90
29777;DHT22;16677;52.224;7.484;2022-09-01T07:31:43;19.30;99.90
29777;DHT22;16677;52.224;7.484;2022-09-01T07:34:30;19.40;99.90
29777;DHT22;16677;52.224;7.484;2022-09-01T07:37:07;19.60;99.90
29777;DHT22;16677;52.224;7.484;2022-09-01T07:39:54;19.50;99.90
29777;DHT22;16677;52.224;7.484;2022-09-01T07:42:22;19.60;99.90
29777;DHT22;16677;52.224;7.484;2022-09-01T07:45:11;19.80;99.90
29777;DHT22;16677;52.224;7.484;2022-09-01T07:47:55;19.90;99.90
29777;DHT22;16677;52.224;7.484;2022-09-01T07:50:23;20.10;99.90
29777;DHT22;16677;52.224;7.484;2022-09-01T07:53:13;20.20;99.90
29777;DHT22;16677;52.224;7.484;2022-09-01T07:55:45;20.10;99.90
29777;DHT22;16677;52.224;7.484;2022-09-01T07:58:13;20.20;99.90
29777;DHT22;16677;52.224;7.484;2022-09-01T08:00:40;20.50;99.90
29777;DHT22;16677;52.224;7.484;2022-09-01T08:03:12;20.60;99.90
29777;DHT22;16677;52.224;7.484;2022-09-01T08:05:40;21.00;99.90
29777;DHT22;16677;52.224;7.484;2022-09-01T08:08:07;21.00;99.90
29777;DHT22;16677;52.224;7.484;2022-09-01T08:10:54;21.10;99.90
29777;DHT22;16677;52.224;7.484;2022-09-01T08:13:30;21.20;99.90
29777;DHT22;16677;52.224;7.484;2022-09-01T08:16:05;21.40;99.90
29777;DHT22;16677;52.224;7.484;2022-09-01T08:18:42;21.70;99.90
29777;DHT22;16677;52.224;7.484;2022-09-01T08:21:18;21.70;99.90
29777;DHT22;16677;52.224;7.484;2022-09-01T08:23:49;21.40;99.90
29777;DHT22;16677;52.224;7.484;2022-09-01T08:26:18;21.60;99.90
29777;DHT22;16677;52.224;7.484;2022-09-01T08:28:46;21.50;99.90
29777;DHT22;16677;52.224;7.484;2022-09-01T08:31:22;21.70;99.90
29777;DHT22;16677;52.224;7.484;2022-09-01T08:33:49;21.60;99.90
29777;DHT22;16677;52.224;7.484;2022-09-01T08:36:17;21.30;99.90
29777;DHT22;16677;52.224;7.484;2022-09-01T08:38:50;21.40;99.90
29777;DHT22;16677;52.224;7.484;2022-09-01T08:41:43;21.70;99.90
29777;DHT22;16677;52.224;7.484;2022-09-01T08:44:40;22.00;99.90
29777;DHT22;16677;52.224;7.484;2022-09-01T08:47:15;22.10;99.90
29777;DHT22;16677;52.224;7.484;2022-09-01T08:49:53;22.10;99.90
29777;DHT22;16677;52.224;7.484;2022-09-01T08:52:37;22.40;99.90
29777;DHT22;16677;52.224;7.484;2022-09-01T14:46:08;24.20;31.00
29777;DHT22;16677;52.224;7.484;2022-09-01T17:09:19;25.70;14.70
29777;DHT22;16677;52.224;7.484;2022-09-01T17:11:56;26.00;12.80
29777;DHT22;16677;52.224;7.484;2022-09-01T17:14:35;25.90;13.00
29777;DHT22;16677;52.224;7.484;2022-09-01T17:17:29;25.80;12.30
29777;DHT22;16677;52.224;7.484;2022-09-01T17:20:16;26.20;12.10
29777;DHT22;16677;52.224;7.484;2022-09-01T17:22:50;26.20;11.90
29777;DHT22;16677;52.224;7.484;2022-09-01T17:25:36;25.70;11.60
29777;DHT22;16677;52.224;7.484;2022-09-01T17:28:51;25.50;11.80
29777;DHT22;16677;52.224;7.484;2022-09-01T17:31:40;25.40;12.50
29777;DHT22;16677;52.224;7.484;2022-09-01T17:34:45;25.30;12.00
29777;DHT22;16677;52.224;7.484;2022-09-01T17:37:46;25.00;12.20
29777;DHT22;16677;52.224;7.484;2022-09-01T17:40:31;24.80;13.20
29777;DHT22;16677;52.224;7.484;2022-09-01T17:43:11;24.10;12.30
29777;DHT22;16677;52.224;7.484;2022-09-01T17:46:04;23.90;13.00
29777;DHT22;16677;52.224;7.484;2022-09-01T17:54:10;24.00;14.10
29777;DHT22;16677;52.224;7.484;2022-09-01T17:56:50;23.60;13.60
29777;DHT22;16677;52.224;7.484;2022-09-01T18:09:53;22.60;13.70
29777;DHT22;16677;52.224;7.484;2022-09-01T18:12:27;22.20;14.30
29777;DHT22;16677;52.224;7.484;2022-09-01T18:17:40;21.60;14.50
29777;DHT22;16677;52.224;7.484;2022-09-01T18:20:28;21.40;14.60
29777;DHT22;16677;52.224;7.484;2022-09-01T18:42:09;20.50;16.20
29777;DHT22;16677;52.224;7.484;2022-09-01T18:45:30;20.50;18.40
29777;DHT22;16677;52.224;7.484;2022-09-01T18:50:44;20.30;16.80
29777;DHT22;16677;52.224;7.484;2022-09-01T19:01:44;20.10;18.40
29777;DHT22;16677;52.224;7.484;2022-09-01T19:04:20;19.90;18.80
29777;DHT22;16677;52.224;7.484;2022-09-01T19:16:14;19.70;21.30
29777;DHT22;16677;52.224;7.484;2022-09-01T19:21:58;19.50;19.90
29777;DHT22;16677;52.224;7.484;2022-09-01T19:24:46;19.50;20.20
29777;DHT22;16677;52.224;7.484;2022-09-01T19:27:23;19.50;21.00
29777;DHT22;16677;52.224;7.484;2022-09-01T19:29:57;19.40;22.10
29777;DHT22;16677;52.224;7.484;2022-09-01T19:32:30;19.30;21.60
29777;DHT22;16677;52.224;7.484;2022-09-01T19:35:09;19.20;22.00
29777;DHT22;16677;52.224;7.484;2022-09-01T19:37:54;19.20;22.70
29777;DHT22;16677;52.224;7.484;2022-09-01T19:40:29;19.10;21.90
29777;DHT22;16677;52.224;7.484;2022-09-01T19:43:15;19.00;23.00
29777;DHT22;16677;52.224;7.484;2022-09-01T19:49:01;19.00;22.30
29777;DHT22;16677;52.224;7.484;2022-09-01T20:08:14;18.60;26.10
29777;DHT22;16677;52.224;7.484;2022-09-01T20:16:36;18.50;28.10
29777;DHT22;16677;52.224;7.484;2022-09-01T20:21:46;18.30;30.20
29777;DHT22;16677;52.224;7.484;2022-09-01T20:24:23;18.30;30.60
29777;DHT22;16677;52.224;7.484;2022-09-01T20:29:39;18.10;34.30
29777;DHT22;16677;52.224;7.484;2022-09-01T20:32:18;18.10;36.60
29777;DHT22;16677;52.224;7.484;2022-09-01T20:34:52;18.10;39.00
29777;DHT22;16677;52.224;7.484;2022-09-01T20:37:29;18.00;42.00
29777;DHT22;16677;52.224;7.484;2022-09-01T20:40:04;18.00;45.90
29777;DHT22;16677;52.224;7.484;2022-09-01T20:42:49;18.00;48.90
29777;DHT22;16677;52.224;7.484;2022-09-01T20:45:19;17.90;49.80
29777;DHT22;16677;52.224;7.484;2022-09-01T20:47:58;17.90;52.70
29777;DHT22;16677;52.224;7.484;2022-09-01T20:58:52;17.70;60.40
29777;DHT22;16677;52.224;7.484;2022-09-01T21:01:46;17.70;61.90
29777;DHT22;16677;52.224;7.484;2022-09-01T21:04:45;17.60;65.10
29777;DHT22;16677;52.224;7.484;2022-09-01T21:07:19;17.60;66.90
29777;DHT22;16677;52.224;7.484;2022-09-01T21:09:50;17.60;67.90
29777;DHT22;16677;52.224;7.484;2022-09-01T21:12:31;17.60;69.20
29777;DHT22;16677;52.224;7.484;2022-09-01T21:23:17;17.50;77.70
29777;DHT22;16677;52.224;7.484;2022-09-01T21:25:47;17.20;77.20
29777;DHT22;16677;52.224;7.484;2022-09-01T21:28:15;17.40;78.90
29777;DHT22;16677;52.224;7.484;2022-09-01T21:30:49;17.50;80.60
29777;DHT22;16677;52.224;7.484;2022-09-01T21:33:21;17.40;80.20
29777;DHT22;16677;52.224;7.484;2022-09-01T21:35:49;17.50;82.00
29777;DHT22;16677;52.224;7.484;2022-09-01T21:38:16;17.40;81.30
29777;DHT22;16677;52.224;7.484;2022-09-01T21:40:44;17.40;83.70
29777;DHT22;16677;52.224;7.484;2022-09-01T21:43:19;17.40;85.50
29777;DHT22;16677;52.224;7.484;2022-09-01T21:45:47;17.40;84.40
29777;DHT22;16677;52.224;7.484;2022-09-01T21:48:15;17.30;85.00
29777;DHT22;16677;52.224;7.484;2022-09-01T21:50:42;17.30;86.30
29777;DHT22;16677;52.224;7.484;2022-09-01T21:53:10;17.30;86.30
29777;DHT22;16677;52.224;7.484;2022-09-01T21:55:39;17.30;85.40
29777;DHT22;16677;52.224;7.484;2022-09-01T21:58:07;17.30;85.50
29777;DHT22;16677;52.224;7.484;2022-09-01T22:00:36;17.20;86.80
29777;DHT22;16677;52.224;7.484;2022-09-01T22:03:10;17.20;87.50
29777;DHT22;16677;52.224;7.484;2022-09-01T22:05:39;17.30;87.60
29777;DHT22;16677;52.224;7.484;2022-09-01T22:08:12;17.20;87.40
29777;DHT22;16677;52.224;7.484;2022-09-01T22:10:43;17.20;89.30
29777;DHT22;16677;52.224;7.484;2022-09-01T22:13:11;17.20;90.10
29777;DHT22;16677;52.224;7.484;2022-09-01T22:15:44;17.10;89.60
29777;DHT22;16677;52.224;7.484;2022-09-01T22:18:12;17.10;90.40
29777;DHT22;16677;52.224;7.484;2022-09-01T22:20:40;17.10;90.40
29777;DHT22;16677;52.224;7.484;2022-09-01T22:23:07;17.10;90.70
29777;DHT22;16677;52.224;7.484;2022-09-01T22:25:38;17.10;88.20
29777;DHT22;16677;52.224;7.484;2022-09-01T22:28:06;17.10;91.10
29777;DHT22;16677;52.224;7.484;2022-09-01T22:30:33;17.00;90.90
29777;DHT22;16677;52.224;7.484;2022-09-01T22:33:00;17.00;90.70
29777;DHT22;16677;52.224;7.484;2022-09-01T22:35:28;17.00;90.60
29777;DHT22;16677;52.224;7.484;2022-09-01T22:37:55;17.00;90.50
29777;DHT22;16677;52.224;7.484;2022-09-01T22:40:22;17.00;91.00
29777;DHT22;16677;52.224;7.484;2022-09-01T22:42:49;17.00;90.70
29777;DHT22;16677;52.224;7.484;2022-09-01T22:45:18;17.00;91.80
29777;DHT22;16677;52.224;7.484;2022-09-01T22:47:45;17.00;91.80
29777;DHT22;16677;52.224;7.484;2022-09-01T22:50:12;17.00;91.70
29777;DHT22;16677;52.224;7.484;2022-09-01T22:52:39;17.00;91.40
29777;DHT22;16677;52.224;7.484;2022-09-01T22:55:07;16.90;92.50
29777;DHT22;16677;52.224;7.484;2022-09-01T22:57:35;16.90;93.10
29777;DHT22;16677;52.224;7.484;2022-09-01T23:00:10;16.90;92.90
29777;DHT22;16677;52.224;7.484;2022-09-01T23:02:46;16.90;93.00
29777;DHT22;16677;52.224;7.484;2022-09-01T23:05:14;16.90;93.60
29777;DHT22;16677;52.224;7.484;2022-09-01T23:07:42;16.70;94.80
29777;DHT22;16677;52.224;7.484;2022-09-01T23:10:09;16.70;94.80
29777;DHT22;16677;52.224;7.484;2022-09-01T23:12:36;16.60;96.20
29777;DHT22;16677;52.224;7.484;2022-09-01T23:15:03;16.60;96.70
29777;DHT22;16677;52.224;7.484;2022-09-01T23:17:31;16.60;98.90
29777;DHT22;16677;52.224;7.484;2022-09-01T23:19:58;16.50;99.00
29777;DHT22;16677;52.224;7.484;2022-09-01T23:22:27;16.40;99.30
29777;DHT22;16677;52.224;7.484;2022-09-01T23:24:54;16.40;99.90
29777;DHT22;16677;52.224;7.484;2022-09-01T23:27:21;16.30;99.90
29777;DHT22;16677;52.224;7.484;2022-09-01T23:29:48;16.30;99.90
29777;DHT22;16677;52.224;7.484;2022-09-01T23:32:15;16.30;99.90
29777;DHT22;16677;52.224;7.484;2022-09-01T23:34:42;16.30;99.90
29777;DHT22;16677;52.224;7.484;2022-09-01T23:37:09;16.30;99.90
29777;DHT22;16677;52.224;7.484;2022-09-01T23:39:36;16.30;99.90
29777;DHT22;16677;52.224;7.484;2022-09-01T23:42:03;16.20;99.90
29777;DHT22;16677;52.224;7.484;2022-09-01T23:44:30;16.20;99.90
29777;DHT22;16677;52.224;7.484;2022-09-01T23:46:57;16.10;99.90
29777;DHT22;16677;52.224;7.484;2022-09-01T23:49:24;16.00;99.90
29777;DHT22;16677;52.224;7.484;2022-09-01T23:51:52;16.00;99.90
29777;DHT22;16677;52.224;7.484;2022-09-01T23:54:20;16.00;99.90
29777;DHT22;16677;52.224;7.484;2022-09-01T23:56:47;15.90;99.90
29777;DHT22;16677;52.224;7.484;2022-09-01T23:59:15;15.90;99.90
